createdAt,value
2018-09-25T00:01:48.911Z,2.23
2018-09-25T00:04:22.573Z,3.20
2018-09-25T00:06:56.349Z,2.87
2018-09-25T00:09:30.083Z,2.63
2018-09-25T00:12:03.773Z,2.53
2018-09-25T00:14:37.786Z,4.17
2018-09-25T00:17:12.268Z,2.77
2018-09-25T00:19:45.957Z,2.40
2018-09-25T00:22:19.713Z,2.47
2018-09-25T00:24:53.481Z,3.03
2018-09-25T00:27:27.239Z,2.50
2018-09-25T00:30:01.238Z,2.10
2018-09-25T00:32:35.025Z,3.00
2018-09-25T00:35:08.707Z,2.43
2018-09-25T00:37:42.375Z,2.80
2018-09-25T00:40:16.025Z,3.70
2018-09-25T00:42:49.741Z,4.53
2018-09-25T00:45:24.219Z,6.13
2018-09-25T00:47:58.219Z,5.30
2018-09-25T00:50:31.988Z,2.77
2018-09-25T00:53:05.621Z,4.63
2018-09-25T00:55:39.613Z,2.97
2018-09-25T00:58:13.886Z,2.37
2018-09-25T01:00:47.545Z,3.83
2018-09-25T01:03:21.962Z,2.87
2018-09-25T01:05:55.572Z,3.70
2018-09-25T01:08:29.337Z,2.80
2018-09-25T01:11:02.823Z,2.70
2018-09-25T01:13:36.582Z,2.50
2018-09-25T01:16:10.138Z,2.50
2018-09-25T08:29:10.225Z,1.72
2018-09-25T08:31:43.825Z,1.30
2018-09-25T08:34:17.484Z,1.55
2018-09-25T08:36:51.285Z,1.80
2018-09-25T08:39:25.078Z,1.35
2018-09-25T08:41:58.832Z,1.50
2018-09-25T08:44:32.422Z,1.30
2018-09-25T08:47:06.295Z,2.12
2018-09-25T08:49:40.079Z,1.80
2018-09-25T08:52:13.771Z,2.30
2018-09-25T08:54:47.599Z,1.30
2018-09-25T08:57:21.205Z,1.05
2018-09-25T08:59:54.907Z,1.20
2018-09-25T09:02:28.594Z,1.67
2018-09-25T09:05:02.286Z,1.52
2018-09-25T09:07:36.033Z,1.52
2018-09-25T09:10:09.936Z,1.12
2018-09-25T09:12:43.662Z,1.40
2018-09-25T09:15:17.451Z,1.22
2018-09-25T09:17:51.210Z,1.40
2018-09-25T09:20:24.976Z,1.95
2018-09-25T09:22:58.645Z,1.30
2018-09-25T09:25:32.536Z,1.32
2018-09-25T09:28:06.150Z,1.55
2018-09-25T09:30:39.745Z,1.32
2018-09-25T09:33:13.420Z,1.55
2018-09-25T09:35:47.091Z,1.37
2018-09-25T09:38:20.680Z,1.50
2018-09-25T09:40:54.641Z,1.35
2018-09-25T09:43:28.439Z,1.20
2018-09-25T09:46:02.072Z,1.07
2018-09-25T09:48:35.698Z,1.40
2018-09-25T09:51:09.432Z,1.22
2018-09-25T09:53:43.495Z,2.20
2018-09-25T09:56:17.272Z,1.37
2018-09-25T09:58:50.930Z,1.85
2018-09-25T10:01:24.666Z,1.65
2018-09-25T10:03:58.405Z,1.60
2018-09-25T10:06:32.205Z,1.45
2018-09-25T10:09:06.092Z,1.60
2018-09-25T10:11:39.936Z,1.42
2018-09-25T10:14:13.754Z,1.50
2018-09-25T10:16:47.440Z,1.40
2018-09-25T10:19:21.047Z,1.47
2018-09-25T10:21:54.878Z,0.85
2018-09-25T10:24:28.678Z,1.70
2018-09-25T10:27:02.542Z,2.00
2018-09-25T10:29:36.196Z,1.50
2018-09-25T10:32:10.002Z,1.60
2018-09-25T10:34:43.709Z,2.27
2018-09-25T10:37:17.477Z,2.95
2018-09-25T10:39:51.124Z,2.67
2018-09-25T10:42:24.826Z,2.12
2018-09-25T10:44:58.491Z,1.85
2018-09-25T10:47:39.049Z,2.60
2018-09-25T10:50:12.658Z,2.58
2018-09-25T10:52:46.353Z,1.98
2018-09-25T10:55:19.947Z,2.40
2018-09-25T10:57:53.965Z,1.17
2018-09-25T11:00:27.671Z,1.32
2018-09-25T11:03:01.538Z,1.37
2018-09-25T11:05:35.249Z,1.25
2018-09-25T11:08:09.044Z,1.27
2018-09-25T11:10:42.787Z,1.07
2018-09-25T11:13:16.565Z,1.37
2018-09-25T11:15:50.057Z,1.35
2018-09-25T11:18:23.862Z,1.40
2018-09-25T11:20:57.544Z,1.42
2018-09-25T11:23:31.261Z,1.80
2018-09-25T11:26:04.868Z,3.37
2018-09-25T11:28:38.549Z,1.50
2018-09-25T11:31:12.118Z,1.20
2018-09-25T11:33:45.907Z,1.12
2018-09-25T11:36:19.624Z,1.12
2018-09-25T11:38:53.325Z,1.37
2018-09-25T11:41:27.161Z,2.00
2018-09-25T11:44:00.730Z,3.12
2018-09-25T11:46:34.598Z,6.10
2018-09-25T11:49:08.597Z,5.08
2018-09-25T11:51:42.409Z,1.10
2018-09-25T11:54:16.440Z,1.07
2018-09-25T11:56:50.323Z,1.45
2018-09-25T11:59:24.033Z,1.00
2018-09-25T12:01:58.405Z,1.45
2018-09-25T12:04:32.103Z,1.10
2018-09-25T12:07:05.965Z,2.22
2018-09-25T12:09:39.772Z,1.37
2018-09-25T12:12:13.979Z,1.00
2018-09-25T12:14:47.711Z,0.98
2018-09-25T12:17:22.718Z,1.20
2018-09-25T12:19:56.539Z,1.07
2018-09-25T12:22:30.373Z,1.25
2018-09-25T12:25:04.165Z,1.20
2018-09-25T12:27:37.793Z,1.27
2018-09-25T12:30:12.160Z,0.85
2018-09-25T12:32:45.770Z,1.22
2018-09-25T12:35:19.468Z,0.70
2018-09-25T12:37:53.059Z,0.70
2018-09-25T12:40:27.479Z,0.80
2018-09-25T12:43:01.128Z,1.02
2018-09-25T12:45:34.959Z,0.90
2018-09-25T12:48:08.557Z,0.90
2018-09-25T12:50:42.192Z,0.78
2018-09-25T12:53:15.741Z,0.68
2018-09-25T12:55:49.260Z,0.93
2018-09-25T12:58:22.905Z,1.87
2018-09-25T13:00:56.684Z,0.98
2018-09-25T13:03:30.545Z,1.15
2018-09-25T13:06:04.308Z,1.17
2018-09-25T13:08:37.965Z,1.25
2018-09-25T13:13:39.411Z,0.80
2018-09-25T13:16:13.914Z,1.20
2018-09-25T13:18:47.802Z,0.93
2018-09-25T13:21:21.475Z,1.45
2018-09-25T13:23:55.187Z,1.60
2018-09-25T13:26:28.762Z,1.55
2018-09-25T13:29:02.545Z,0.70
2018-09-25T13:31:36.066Z,0.90
2018-09-25T13:34:09.911Z,1.20
2018-09-25T13:36:43.630Z,0.93
2018-09-25T13:39:17.396Z,0.70
2018-09-25T13:41:51.097Z,0.88
2018-09-25T13:44:24.863Z,0.70
2018-09-25T13:46:58.595Z,1.20
2018-09-25T13:49:32.486Z,1.07
2018-09-25T13:52:06.183Z,0.62
2018-09-25T13:54:40.132Z,0.85
2018-09-25T13:57:13.946Z,0.98
2018-09-25T13:59:47.822Z,0.98
2018-09-25T14:02:21.462Z,1.10
2018-09-25T14:04:55.265Z,1.00
2018-09-25T14:07:28.994Z,1.25
2018-09-25T14:10:02.663Z,1.32
2018-09-25T14:12:36.415Z,1.40
2018-09-25T14:15:10.285Z,1.10
2018-09-25T14:17:44.207Z,1.32
2018-09-25T14:20:17.816Z,1.85
2018-09-25T14:22:51.683Z,1.92
2018-09-25T14:25:26.148Z,1.40
2018-09-25T14:27:59.829Z,1.57
2018-09-25T14:30:43.371Z,1.20
2018-09-25T14:33:16.913Z,1.75
2018-09-25T14:35:50.595Z,2.45
2018-09-25T14:38:24.502Z,1.65
2018-09-25T14:40:59.174Z,1.62
2018-09-25T14:43:32.966Z,1.40
2018-09-25T14:46:06.651Z,1.20
2018-09-25T14:48:41.850Z,1.20
2018-09-25T14:51:16.034Z,2.15
2018-09-25T14:53:49.858Z,1.37
2018-09-25T14:56:24.600Z,2.80
2018-09-25T14:58:59.870Z,1.90
2018-09-25T15:01:33.581Z,2.02
2018-09-25T15:04:07.396Z,1.70
2018-09-25T15:06:41.284Z,1.60
2018-09-25T15:09:15.031Z,1.45
2018-09-25T15:11:49.642Z,2.35
2018-09-25T15:14:23.650Z,1.40
2018-09-25T15:16:58.165Z,2.02
2018-09-25T15:19:32.785Z,1.85
2018-09-25T15:22:06.547Z,1.55
2018-09-25T15:24:39.949Z,1.52
2018-09-25T15:27:13.912Z,1.50
2018-09-25T15:29:48.462Z,2.75
2018-09-25T15:32:22.937Z,1.65
2018-09-25T15:34:58.199Z,1.62
2018-09-25T15:37:32.863Z,1.80
2018-09-25T15:40:07.742Z,2.30
2018-09-25T15:42:42.352Z,1.80
2018-09-25T15:45:15.952Z,1.67
2018-09-25T15:47:51.177Z,2.62
2018-09-25T15:50:25.365Z,1.50
2018-09-25T15:52:59.079Z,2.35
2018-09-25T15:55:32.711Z,1.22
2018-09-25T15:58:08.170Z,1.32
2018-09-25T16:00:42.771Z,1.10
2018-09-25T16:03:17.792Z,1.27
2018-09-25T16:05:53.415Z,1.27
2018-09-25T16:08:27.087Z,1.40
2018-09-25T16:11:00.839Z,1.62
2018-09-25T16:13:34.511Z,1.80
2018-09-25T16:16:08.188Z,1.70
2018-09-25T16:18:41.863Z,1.12
2018-09-25T16:21:15.540Z,2.15
2018-09-25T16:23:49.308Z,1.37
2018-09-25T16:26:23.009Z,1.42
2018-09-25T16:28:56.586Z,1.50
2018-09-25T16:31:30.248Z,1.40
2018-09-25T16:34:03.942Z,1.52
2018-09-25T16:36:37.592Z,1.50
2018-09-25T16:39:14.367Z,2.47
2018-09-25T16:41:48.325Z,1.40
2018-09-25T16:44:22.309Z,1.85
2018-09-25T16:46:55.916Z,2.05
2018-09-25T16:49:29.476Z,1.30
2018-09-25T16:52:03.019Z,1.50
2018-09-25T16:54:36.672Z,1.60
2018-09-25T16:57:10.430Z,1.50
2018-09-25T16:59:44.188Z,1.40
2018-09-25T17:02:17.914Z,2.00
2018-09-25T17:04:51.646Z,1.40
2018-09-25T17:07:25.449Z,1.55
2018-09-25T17:09:59.113Z,1.50
2018-09-25T17:12:32.773Z,1.50
2018-09-25T17:15:06.559Z,2.02
2018-09-25T17:17:40.864Z,2.35
2018-09-25T17:20:14.637Z,2.10
2018-09-25T17:22:48.238Z,2.37
2018-09-25T17:25:21.945Z,3.15
2018-09-25T17:27:55.595Z,2.65
2018-09-25T17:30:29.254Z,1.80
2018-09-25T17:33:02.867Z,2.77
2018-09-25T17:35:36.665Z,2.60
2018-09-25T17:38:10.406Z,2.42
2018-09-25T17:40:44.097Z,2.45
2018-09-25T17:43:17.876Z,3.25
2018-09-25T17:45:51.428Z,2.98
2018-09-25T17:48:25.205Z,4.65
2018-09-25T17:50:58.835Z,2.67
2018-09-25T17:53:32.522Z,2.90
2018-09-25T17:56:06.100Z,4.33
2018-09-25T17:58:39.709Z,2.92
2018-09-25T18:01:13.317Z,3.77
2018-09-25T18:03:46.842Z,3.45
2018-09-25T18:06:20.517Z,3.05
2018-09-25T18:08:54.233Z,2.70
2018-09-25T18:11:27.878Z,3.72
2018-09-25T18:14:01.507Z,13.93
2018-09-25T18:16:35.094Z,7.83
2018-09-25T18:19:08.794Z,4.83
2018-09-25T18:21:42.498Z,6.12
2018-09-25T18:24:16.038Z,6.45
2018-09-25T18:26:49.749Z,9.68
2018-09-25T18:29:23.313Z,2.87
2018-09-25T18:31:57.055Z,2.42
2018-09-25T18:34:30.680Z,4.72
2018-09-25T18:37:04.287Z,3.70
2018-09-25T18:39:38.124Z,3.27
2018-09-25T18:42:12.099Z,2.70
2018-09-25T18:44:45.689Z,4.23
2018-09-25T18:47:19.325Z,4.47
2018-09-25T18:49:53.051Z,3.70
2018-09-25T18:52:26.771Z,4.60
2018-09-25T18:55:00.402Z,3.13
2018-09-25T18:57:34.209Z,2.67
2018-09-25T19:00:07.804Z,3.30
2018-09-25T19:02:41.514Z,3.20
2018-09-25T19:05:15.359Z,4.30
2018-09-25T19:07:49.122Z,4.27
2018-09-25T19:10:22.805Z,3.13
2018-09-25T19:12:56.555Z,3.20
2018-09-25T19:15:30.315Z,3.62
2018-09-25T19:18:04.213Z,4.43
2018-09-25T19:20:37.887Z,4.20
2018-09-25T19:23:11.531Z,5.13
2018-09-25T19:25:45.388Z,7.00
2018-09-25T19:28:19.068Z,3.63
2018-09-25T19:30:52.595Z,3.87
2018-09-25T19:33:26.302Z,4.43
2018-09-25T19:36:00.086Z,6.87
2018-09-25T19:38:33.615Z,5.20
2018-09-25T19:41:07.191Z,2.90
2018-09-25T19:43:40.695Z,3.60
2018-09-25T19:46:14.410Z,3.23
2018-09-25T19:48:48.119Z,3.13
2018-09-25T19:51:21.855Z,2.77
2018-09-25T19:53:55.490Z,4.43
2018-09-25T19:56:29.166Z,2.73
2018-09-25T19:59:02.660Z,3.23
2018-09-25T20:01:36.241Z,3.57
2018-09-25T20:04:09.971Z,2.57
2018-09-25T20:06:43.491Z,4.00
2018-09-25T20:09:17.154Z,2.47
2018-09-25T20:11:50.795Z,2.70
2018-09-25T20:14:24.530Z,2.80
2018-09-25T20:16:58.287Z,4.57
2018-09-25T20:19:31.979Z,3.50
2018-09-25T20:22:05.705Z,2.90
2018-09-25T20:24:39.429Z,3.00
2018-09-25T20:27:13.261Z,3.37
2018-09-25T20:29:46.978Z,2.93
2018-09-25T20:32:20.619Z,9.13
2018-09-25T20:34:54.369Z,10.50
2018-09-25T20:37:28.096Z,7.77
2018-09-25T20:40:01.775Z,6.27
2018-09-25T20:42:35.339Z,10.40
2018-09-25T20:45:09.118Z,4.17
2018-09-25T20:47:42.801Z,5.93
2018-09-25T20:50:16.551Z,4.03
2018-09-25T20:52:50.151Z,4.77
2018-09-25T20:55:23.836Z,3.57
2018-09-25T20:57:57.450Z,3.03
2018-09-25T21:00:31.234Z,5.53
2018-09-25T21:03:04.917Z,5.10
2018-09-25T21:05:38.445Z,4.70
2018-09-25T21:08:12.343Z,3.90
2018-09-25T21:10:45.855Z,11.67
2018-09-25T21:13:19.512Z,4.53
2018-09-25T21:15:53.274Z,10.87
2018-09-25T21:18:26.926Z,5.17
2018-09-25T21:21:00.644Z,8.23
2018-09-25T21:23:34.334Z,13.43
2018-09-25T21:26:08.013Z,7.53
2018-09-25T21:28:41.643Z,7.20
2018-09-25T21:31:15.350Z,3.10
2018-09-25T21:33:49.099Z,3.57
2018-09-25T21:36:22.856Z,2.93
2018-09-25T21:38:56.550Z,3.23
2018-09-25T21:41:30.179Z,3.23
2018-09-25T21:44:03.884Z,3.33
2018-09-25T21:46:37.668Z,2.73
2018-09-25T21:49:11.286Z,3.20
2018-09-25T21:51:45.044Z,2.90
2018-09-25T21:54:18.572Z,2.60
2018-09-25T21:56:52.388Z,2.80
2018-09-25T21:59:26.124Z,3.17
2018-09-25T22:01:59.664Z,2.37
2018-09-25T22:04:33.432Z,3.20
2018-09-25T22:07:07.205Z,3.63
2018-09-25T22:09:40.960Z,4.33
2018-09-25T22:12:14.526Z,5.40
2018-09-25T22:14:48.113Z,4.23
2018-09-25T22:17:21.907Z,4.63
2018-09-25T22:19:55.418Z,3.80
2018-09-25T22:22:29.126Z,3.00
2018-09-25T22:25:02.774Z,2.87
2018-09-25T22:27:36.573Z,3.60
2018-09-25T22:30:10.378Z,3.10
2018-09-25T22:32:44.168Z,5.10
2018-09-25T22:35:17.718Z,2.90
2018-09-25T22:37:51.460Z,2.67
2018-09-25T22:40:25.103Z,2.53
2018-09-25T22:42:58.662Z,3.70
2018-09-25T22:45:32.350Z,4.07
2018-09-25T22:48:06.059Z,5.23
2018-09-25T22:50:39.762Z,2.77
2018-09-25T22:53:13.485Z,11.00
2018-09-25T22:55:47.197Z,4.40
2018-09-25T22:58:20.723Z,3.23
2018-09-25T23:00:54.354Z,3.00
2018-09-25T23:03:27.949Z,2.93
2018-09-25T23:06:03.030Z,4.33
2018-09-25T23:08:36.585Z,2.53
2018-09-25T23:11:10.233Z,3.93
2018-09-25T23:13:44.375Z,3.20
2018-09-25T23:16:17.967Z,2.80
2018-09-25T23:18:51.747Z,3.40
2018-09-25T23:21:25.398Z,4.30
2018-09-25T23:23:58.998Z,2.70
2018-09-25T23:26:32.782Z,3.00
2018-09-25T23:29:06.515Z,2.73
2018-09-25T23:31:40.125Z,3.30
2018-09-25T23:34:13.918Z,2.70
2018-09-25T23:36:47.740Z,2.87
2018-09-25T23:39:20.281Z,2.63
2018-09-25T23:42:24.798Z,2.70
2018-09-25T23:44:58.503Z,4.20
2018-09-25T23:47:37.140Z,2.70
2018-09-25T23:52:12.504Z,2.90
2018-09-25T23:54:48.350Z,3.07
2018-09-25T23:57:24.002Z,3.97
2018-09-25T23:59:58.712Z,5.20
